sensor_id;sensor_type;location;lat;lon;timestamp;temperature;humidity
64961;SHT31;51487;52.266;10.542;2023-07-29T00:00:56;20.37;89.70
64961;SHT31;51487;52.266;10.542;2023-07-29T00:03:22;20.33;90.44
64961;SHT31;51487;52.266;10.542;2023-07-29T00:05:48;20.40;89.84
64961;SHT31;51487;52.266;10.542;2023-07-29T00:08:13;20.37;89.80
64961;SHT31;51487;52.266;10.542;2023-07-29T00:10:39;20.43;89.21
64961;SHT31;51487;52.266;10.542;2023-07-29T00:13:07;20.37;89.70
64961;SHT31;51487;52.266;10.542;2023-07-29T00:15:32;20.43;89.40
64961;SHT31;51487;52.266;10.542;2023-07-29T00:17:58;20.50;89.17
64961;SHT31;51487;52.266;10.542;2023-07-29T00:20:24;20.53;89.64
64961;SHT31;51487;52.266;10.542;2023-07-29T00:22:49;20.67;87.93
64961;SHT31;51487;52.266;10.542;2023-07-29T00:25:17;20.56;88.98
64961;SHT31;51487;52.266;10.542;2023-07-29T00:27:43;20.42;89.93
64961;SHT31;51487;52.266;10.542;2023-07-29T00:30:09;20.30;90.54
64961;SHT31;51487;52.266;10.542;2023-07-29T00:32:35;20.26;90.59
64961;SHT31;51487;52.266;10.542;2023-07-29T00:35:02;20.29;89.99
64961;SHT31;51487;52.266;10.542;2023-07-29T00:37:28;20.34;90.11
64961;SHT31;51487;52.266;10.542;2023-07-29T00:39:54;20.22;90.41
64961;SHT31;51487;52.266;10.542;2023-07-29T00:42:19;20.29;89.59
64961;SHT31;51487;52.266;10.542;2023-07-29T00:44:45;20.44;89.09
64961;SHT31;51487;52.266;10.542;2023-07-29T00:47:12;20.54;89.40
64961;SHT31;51487;52.266;10.542;2023-07-29T00:49:40;20.52;89.59
64961;SHT31;51487;52.266;10.542;2023-07-29T00:52:06;20.43;89.98
64961;SHT31;51487;52.266;10.542;2023-07-29T00:54:32;20.32;90.56
64961;SHT31;51487;52.266;10.542;2023-07-29T00:56:57;20.26;89.98
64961;SHT31;51487;52.266;10.542;2023-07-29T00:59:23;20.37;89.55
64961;SHT31;51487;52.266;10.542;2023-07-29T01:01:49;20.56;88.17
64961;SHT31;51487;52.266;10.542;2023-07-29T01:04:15;20.63;88.44
64961;SHT31;51487;52.266;10.542;2023-07-29T01:10:02;20.57;88.98
64961;SHT31;51487;52.266;10.542;2023-07-29T01:13:19;20.40;90.13
64961;SHT31;51487;52.266;10.542;2023-07-29T01:16:00;20.23;90.16
64961;SHT31;51487;52.266;10.542;2023-07-29T01:18:32;20.21;90.87
64961;SHT31;51487;52.266;10.542;2023-07-29T01:21:04;20.16;90.83
64961;SHT31;51487;52.266;10.542;2023-07-29T01:23:34;20.06;90.76
64961;SHT31;51487;52.266;10.542;2023-07-29T01:26:01;20.08;90.31
64961;SHT31;51487;52.266;10.542;2023-07-29T01:28:28;20.18;90.12
64961;SHT31;51487;52.266;10.542;2023-07-29T01:31:12;20.19;90.33
64961;SHT31;51487;52.266;10.542;2023-07-29T01:34:22;20.11;89.41
64961;SHT31;51487;52.266;10.542;2023-07-29T01:36:54;20.16;89.81
64961;SHT31;51487;52.266;10.542;2023-07-29T01:39:23;20.12;90.31
64961;SHT31;51487;52.266;10.542;2023-07-29T01:41:51;20.18;89.53
64961;SHT31;51487;52.266;10.542;2023-07-29T01:44:19;20.15;90.23
64961;SHT31;51487;52.266;10.542;2023-07-29T01:46:44;20.06;90.07
64961;SHT31;51487;52.266;10.542;2023-07-29T01:49:10;20.15;89.60
64961;SHT31;51487;52.266;10.542;2023-07-29T01:51:35;20.09;90.25
64961;SHT31;51487;52.266;10.542;2023-07-29T01:54:01;20.15;90.00
64961;SHT31;51487;52.266;10.542;2023-07-29T01:56:26;20.18;88.60
64961;SHT31;51487;52.266;10.542;2023-07-29T01:58:52;20.23;89.72
64961;SHT31;51487;52.266;10.542;2023-07-29T02:01:17;20.26;89.19
64961;SHT31;51487;52.266;10.542;2023-07-29T02:03:43;20.06;90.07
64961;SHT31;51487;52.266;10.542;2023-07-29T02:06:09;19.96;90.58
64961;SHT31;51487;52.266;10.542;2023-07-29T02:08:35;20.08;89.10
64961;SHT31;51487;52.266;10.542;2023-07-29T02:11:00;19.96;90.58
64961;SHT31;51487;52.266;10.542;2023-07-29T02:13:26;19.94;90.42
64961;SHT31;51487;52.266;10.542;2023-07-29T02:15:52;19.89;90.67
64961;SHT31;51487;52.266;10.542;2023-07-29T02:18:17;19.79;90.74
64961;SHT31;51487;52.266;10.542;2023-07-29T02:20:43;19.79;91.07
64961;SHT31;51487;52.266;10.542;2023-07-29T02:23:15;19.70;91.37
64961;SHT31;51487;52.266;10.542;2023-07-29T02:25:42;19.68;91.43
64961;SHT31;51487;52.266;10.542;2023-07-29T02:28:08;19.78;90.06
64961;SHT31;51487;52.266;10.542;2023-07-29T02:30:33;19.94;89.82
64961;SHT31;51487;52.266;10.542;2023-07-29T02:32:59;19.88;90.66
64961;SHT31;51487;52.266;10.542;2023-07-29T02:35:27;19.88;90.26
64961;SHT31;51487;52.266;10.542;2023-07-29T02:37:54;19.86;90.19
64961;SHT31;51487;52.266;10.542;2023-07-29T02:40:19;19.91;89.39
64961;SHT31;51487;52.266;10.542;2023-07-29T02:42:46;19.89;90.05
64961;SHT31;51487;52.266;10.542;2023-07-29T02:45:12;19.86;90.04
64961;SHT31;51487;52.266;10.542;2023-07-29T02:47:38;19.73;90.83
64961;SHT31;51487;52.266;10.542;2023-07-29T02:50:04;19.63;90.79
64961;SHT31;51487;52.266;10.542;2023-07-29T02:52:30;19.70;90.76
64961;SHT31;51487;52.266;10.542;2023-07-29T02:54:55;19.78;90.22
64961;SHT31;51487;52.266;10.542;2023-07-29T02:57:21;19.75;91.00
64961;SHT31;51487;52.266;10.542;2023-07-29T02:59:46;19.79;90.53
64961;SHT31;51487;52.266;10.542;2023-07-29T03:02:12;19.81;90.44
64961;SHT31;51487;52.266;10.542;2023-07-29T03:04:38;19.68;91.25
64961;SHT31;51487;52.266;10.542;2023-07-29T03:07:03;19.74;91.32
64961;SHT31;51487;52.266;10.542;2023-07-29T03:09:29;19.84;90.16
64961;SHT31;51487;52.266;10.542;2023-07-29T03:11:54;19.99;89.25
64961;SHT31;51487;52.266;10.542;2023-07-29T03:14:21;20.08;89.51
64961;SHT31;51487;52.266;10.542;2023-07-29T03:16:46;19.91;90.55
64961;SHT31;51487;52.266;10.542;2023-07-29T03:19:12;19.96;90.28
64961;SHT31;51487;52.266;10.542;2023-07-29T03:21:38;20.04;89.88
64961;SHT31;51487;52.266;10.542;2023-07-29T03:24:03;20.02;89.52
64961;SHT31;51487;52.266;10.542;2023-07-29T03:26:29;20.06;89.71
64961;SHT31;51487;52.266;10.542;2023-07-29T03:28:54;20.23;89.30
64961;SHT31;51487;52.266;10.542;2023-07-29T03:31:20;20.32;89.17
64961;SHT31;51487;52.266;10.542;2023-07-29T03:33:46;20.23;89.78
64961;SHT31;51487;52.266;10.542;2023-07-29T03:36:11;20.28;89.59
64961;SHT31;51487;52.266;10.542;2023-07-29T03:38:37;20.23;89.38
64961;SHT31;51487;52.266;10.542;2023-07-29T03:41:07;20.25;89.26
64961;SHT31;51487;52.266;10.542;2023-07-29T03:43:34;20.22;90.10
64961;SHT31;51487;52.266;10.542;2023-07-29T03:46:00;20.16;89.45
64961;SHT31;51487;52.266;10.542;2023-07-29T03:48:25;20.15;89.62
64961;SHT31;51487;52.266;10.542;2023-07-29T03:50:51;20.25;88.67
64961;SHT31;51487;52.266;10.542;2023-07-29T03:53:17;20.23;89.23
64961;SHT31;51487;52.266;10.542;2023-07-29T03:55:43;20.15;90.29
64961;SHT31;51487;52.266;10.542;2023-07-29T03:58:09;20.11;89.99
64961;SHT31;51487;52.266;10.542;2023-07-29T04:00:34;20.16;89.46
64961;SHT31;51487;52.266;10.542;2023-07-29T04:03:00;20.21;88.96
64961;SHT31;51487;52.266;10.542;2023-07-29T04:05:25;20.23;89.60
64961;SHT31;51487;52.266;10.542;2023-07-29T04:07:51;20.36;89.17
64961;SHT31;51487;52.266;10.542;2023-07-29T04:10:18;20.37;89.50
64961;SHT31;51487;52.266;10.542;2023-07-29T04:12:44;20.23;89.97
64961;SHT31;51487;52.266;10.542;2023-07-29T04:15:09;20.25;89.10
64961;SHT31;51487;52.266;10.542;2023-07-29T04:17:35;20.43;88.43
64961;SHT31;51487;52.266;10.542;2023-07-29T04:20:01;20.44;89.66
64961;SHT31;51487;52.266;10.542;2023-07-29T04:22:27;20.47;88.94
64961;SHT31;51487;52.266;10.542;2023-07-29T04:24:53;20.44;89.38
64961;SHT31;51487;52.266;10.542;2023-07-29T04:27:19;20.53;88.52
64961;SHT31;51487;52.266;10.542;2023-07-29T04:29:44;20.54;88.34
64961;SHT31;51487;52.266;10.542;2023-07-29T04:32:10;20.52;89.36
64961;SHT31;51487;52.266;10.542;2023-07-29T04:34:35;20.56;88.75
64961;SHT31;51487;52.266;10.542;2023-07-29T04:37:01;20.62;89.14
64961;SHT31;51487;52.266;10.542;2023-07-29T04:39:26;20.49;89.94
64961;SHT31;51487;52.266;10.542;2023-07-29T04:41:52;20.50;88.45
64961;SHT31;51487;52.266;10.542;2023-07-29T04:44:17;20.62;89.37
64961;SHT31;51487;52.266;10.542;2023-07-29T04:46:43;20.70;89.02
64961;SHT31;51487;52.266;10.542;2023-07-29T04:49:08;20.85;88.46
64961;SHT31;51487;52.266;10.542;2023-07-29T04:51:34;20.88;88.13
64961;SHT31;51487;52.266;10.542;2023-07-29T04:54:00;20.79;88.82
64961;SHT31;51487;52.266;10.542;2023-07-29T04:56:26;20.81;87.76
64961;SHT31;51487;52.266;10.542;2023-07-29T04:58:52;20.70;89.34
64961;SHT31;51487;52.266;10.542;2023-07-29T05:01:18;20.66;89.08
64961;SHT31;51487;52.266;10.542;2023-07-29T05:03:43;20.74;88.57
64961;SHT31;51487;52.266;10.542;2023-07-29T05:06:09;20.94;86.50
64961;SHT31;51487;52.266;10.542;2023-07-29T05:08:34;21.17;87.08
64961;SHT31;51487;52.266;10.542;2023-07-29T05:11:00;21.15;87.23
64961;SHT31;51487;52.266;10.542;2023-07-29T05:13:26;21.28;85.69
64961;SHT31;51487;52.266;10.542;2023-07-29T05:15:51;21.45;85.96
64961;SHT31;51487;52.266;10.542;2023-07-29T05:18:17;21.34;87.68
64961;SHT31;51487;52.266;10.542;2023-07-29T05:20:43;21.27;87.36
64961;SHT31;51487;52.266;10.542;2023-07-29T05:23:09;21.17;87.68
64961;SHT31;51487;52.266;10.542;2023-07-29T05:25:34;21.08;88.27
64961;SHT31;51487;52.266;10.542;2023-07-29T05:28:01;21.12;86.80
64961;SHT31;51487;52.266;10.542;2023-07-29T05:30:28;21.18;87.17
64961;SHT31;51487;52.266;10.542;2023-07-29T05:32:57;21.27;87.12
64961;SHT31;51487;52.266;10.542;2023-07-29T05:35:23;21.31;87.64
64961;SHT31;51487;52.266;10.542;2023-07-29T05:37:48;21.34;87.08
64961;SHT31;51487;52.266;10.542;2023-07-29T05:40:14;21.34;88.26
64961;SHT31;51487;52.266;10.542;2023-07-29T05:42:40;21.43;87.28
64961;SHT31;51487;52.266;10.542;2023-07-29T05:45:06;21.63;86.03
64961;SHT31;51487;52.266;10.542;2023-07-29T05:47:32;21.69;85.84
64961;SHT31;51487;52.266;10.542;2023-07-29T05:49:57;21.72;86.10
64961;SHT31;51487;52.266;10.542;2023-07-29T05:52:23;21.60;86.33
64961;SHT31;51487;52.266;10.542;2023-07-29T05:54:51;21.59;86.37
64961;SHT31;51487;52.266;10.542;2023-07-29T05:57:17;21.49;87.01
64961;SHT31;51487;52.266;10.542;2023-07-29T05:59:43;21.53;86.59
64961;SHT31;51487;52.266;10.542;2023-07-29T06:02:09;21.52;85.49
64961;SHT31;51487;52.266;10.542;2023-07-29T06:04:34;21.37;87.71
64961;SHT31;51487;52.266;10.542;2023-07-29T06:07:00;21.25;88.54
64961;SHT31;51487;52.266;10.542;2023-07-29T06:09:25;21.24;86.77
64961;SHT31;51487;52.266;10.542;2023-07-29T06:11:51;21.15;89.07
64961;SHT31;51487;52.266;10.542;2023-07-29T06:14:17;20.98;90.35
64961;SHT31;51487;52.266;10.542;2023-07-29T06:16:42;20.90;91.09
64961;SHT31;51487;52.266;10.542;2023-07-29T06:19:08;20.88;91.01
64961;SHT31;51487;52.266;10.542;2023-07-29T06:21:35;20.84;91.67
64961;SHT31;51487;52.266;10.542;2023-07-29T06:24:01;20.71;92.28
64961;SHT31;51487;52.266;10.542;2023-07-29T06:26:27;20.70;92.30
64961;SHT31;51487;52.266;10.542;2023-07-29T06:28:53;20.71;92.45
64961;SHT31;51487;52.266;10.542;2023-07-29T06:31:18;20.70;93.13
64961;SHT31;51487;52.266;10.542;2023-07-29T06:33:44;20.59;93.88
64961;SHT31;51487;52.266;10.542;2023-07-29T06:36:11;20.47;94.80
64961;SHT31;51487;52.266;10.542;2023-07-29T06:38:36;20.43;93.62
64961;SHT31;51487;52.266;10.542;2023-07-29T06:41:04;20.40;94.50
64961;SHT31;51487;52.266;10.542;2023-07-29T06:43:29;20.32;95.10
64961;SHT31;51487;52.266;10.542;2023-07-29T06:45:55;20.36;95.56
64961;SHT31;51487;52.266;10.542;2023-07-29T06:48:21;20.30;94.58
64961;SHT31;51487;52.266;10.542;2023-07-29T06:50:46;20.21;96.06
64961;SHT31;51487;52.266;10.542;2023-07-29T06:53:12;20.08;96.75
64961;SHT31;51487;52.266;10.542;2023-07-29T06:55:37;20.08;96.78
64961;SHT31;51487;52.266;10.542;2023-07-29T06:58:03;20.06;96.83
64961;SHT31;51487;52.266;10.542;2023-07-29T07:00:28;20.02;96.60
64961;SHT31;51487;52.266;10.542;2023-07-29T07:02:54;20.05;96.70
64961;SHT31;51487;52.266;10.542;2023-07-29T07:05:20;20.18;95.62
64961;SHT31;51487;52.266;10.542;2023-07-29T07:07:45;20.13;96.04
64961;SHT31;51487;52.266;10.542;2023-07-29T07:10:11;20.05;96.57
64961;SHT31;51487;52.266;10.542;2023-07-29T07:12:36;20.05;96.25
64961;SHT31;51487;52.266;10.542;2023-07-29T07:15:02;19.99;96.61
64961;SHT31;51487;52.266;10.542;2023-07-29T07:17:28;20.02;96.50
64961;SHT31;51487;52.266;10.542;2023-07-29T07:19:53;20.18;96.03
64961;SHT31;51487;52.266;10.542;2023-07-29T07:22:19;20.08;96.94
64961;SHT31;51487;52.266;10.542;2023-07-29T07:24:45;20.04;96.58
64961;SHT31;51487;52.266;10.542;2023-07-29T07:27:10;20.22;96.11
64961;SHT31;51487;52.266;10.542;2023-07-29T07:29:36;20.18;96.15
64961;SHT31;51487;52.266;10.542;2023-07-29T07:32:02;20.13;96.73
64961;SHT31;51487;52.266;10.542;2023-07-29T07:34:27;20.26;96.05
64961;SHT31;51487;52.266;10.542;2023-07-29T07:36:53;20.33;96.14
64961;SHT31;51487;52.266;10.542;2023-07-29T07:39:19;20.32;96.05
64961;SHT31;51487;52.266;10.542;2023-07-29T07:41:44;20.33;96.21
64961;SHT31;51487;52.266;10.542;2023-07-29T07:44:10;20.36;96.35
64961;SHT31;51487;52.266;10.542;2023-07-29T07:46:38;20.21;97.09
64961;SHT31;51487;52.266;10.542;2023-07-29T07:49:03;20.33;95.81
64961;SHT31;51487;52.266;10.542;2023-07-29T07:51:29;20.34;96.21
64961;SHT31;51487;52.266;10.542;2023-07-29T07:53:56;20.33;96.02
64961;SHT31;51487;52.266;10.542;2023-07-29T07:56:21;20.40;96.11
64961;SHT31;51487;52.266;10.542;2023-07-29T07:58:47;20.40;95.80
64961;SHT31;51487;52.266;10.542;2023-07-29T08:01:12;20.46;95.70
64961;SHT31;51487;52.266;10.542;2023-07-29T08:03:38;20.49;95.75
64961;SHT31;51487;52.266;10.542;2023-07-29T08:06:04;20.77;94.85
64961;SHT31;51487;52.266;10.542;2023-07-29T08:08:30;20.90;94.48
64961;SHT31;51487;52.266;10.542;2023-07-29T08:10:57;21.00;93.92
64961;SHT31;51487;52.266;10.542;2023-07-29T08:13:24;21.15;93.79
64961;SHT31;51487;52.266;10.542;2023-07-29T08:15:52;21.35;92.41
64961;SHT31;51487;52.266;10.542;2023-07-29T08:18:19;21.48;93.35
64961;SHT31;51487;52.266;10.542;2023-07-29T08:20:56;21.60;92.51
64961;SHT31;51487;52.266;10.542;2023-07-29T08:23:26;21.89;92.35
64961;SHT31;51487;52.266;10.542;2023-07-29T08:25:54;21.79;92.11
64961;SHT31;51487;52.266;10.542;2023-07-29T08:28:22;21.89;92.42
64961;SHT31;51487;52.266;10.542;2023-07-29T08:30:48;21.83;93.18
64961;SHT31;51487;52.266;10.542;2023-07-29T08:33:14;21.87;92.17
64961;SHT31;51487;52.266;10.542;2023-07-29T08:35:40;21.96;91.76
64961;SHT31;51487;52.266;10.542;2023-07-29T08:38:05;22.06;91.85
64961;SHT31;51487;52.266;10.542;2023-07-29T08:40:34;22.16;91.92
64961;SHT31;51487;52.266;10.542;2023-07-29T08:43:04;22.16;91.60
64961;SHT31;51487;52.266;10.542;2023-07-29T08:45:35;22.24;90.97
64961;SHT31;51487;52.266;10.542;2023-07-29T08:48:09;22.13;90.86
64961;SHT31;51487;52.266;10.542;2023-07-29T08:50:37;22.09;91.92
64961;SHT31;51487;52.266;10.542;2023-07-29T08:53:06;21.96;92.86
64961;SHT31;51487;52.266;10.542;2023-07-29T08:55:33;21.86;92.45
64961;SHT31;51487;52.266;10.542;2023-07-29T08:57:59;21.79;92.51
64961;SHT31;51487;52.266;10.542;2023-07-29T09:00:27;21.76;93.05
64961;SHT31;51487;52.266;10.542;2023-07-29T09:02:53;21.79;92.71
64961;SHT31;51487;52.266;10.542;2023-07-29T09:05:21;21.89;91.92
64961;SHT31;51487;52.266;10.542;2023-07-29T09:07:50;21.82;92.67
64961;SHT31;51487;52.266;10.542;2023-07-29T09:10:21;21.85;91.72
64961;SHT31;51487;52.266;10.542;2023-07-29T09:12:47;21.83;93.21
64961;SHT31;51487;52.266;10.542;2023-07-29T09:15:12;22.06;91.71
64961;SHT31;51487;52.266;10.542;2023-07-29T09:17:40;22.11;91.29
64961;SHT31;51487;52.266;10.542;2023-07-29T09:20:09;22.20;91.14
64961;SHT31;51487;52.266;10.542;2023-07-29T09:22:35;22.14;91.55
64961;SHT31;51487;52.266;10.542;2023-07-29T09:25:01;22.04;91.81
64961;SHT31;51487;52.266;10.542;2023-07-29T09:27:28;21.97;91.54
64961;SHT31;51487;52.266;10.542;2023-07-29T09:29:57;21.90;91.81
64961;SHT31;51487;52.266;10.542;2023-07-29T09:32:25;21.99;91.51
64961;SHT31;51487;52.266;10.542;2023-07-29T09:34:51;22.07;91.14
64961;SHT31;51487;52.266;10.542;2023-07-29T09:37:21;22.21;90.94
64961;SHT31;51487;52.266;10.542;2023-07-29T09:39:48;22.41;90.86
64961;SHT31;51487;52.266;10.542;2023-07-29T09:42:22;22.64;86.85
64961;SHT31;51487;52.266;10.542;2023-07-29T09:44:50;22.72;87.48
64961;SHT31;51487;52.266;10.542;2023-07-29T09:47:25;22.88;82.55
64961;SHT31;51487;52.266;10.542;2023-07-29T09:49:52;23.00;84.25
64961;SHT31;51487;52.266;10.542;2023-07-29T09:52:23;22.99;82.16
64961;SHT31;51487;52.266;10.542;2023-07-29T09:54:49;23.03;86.43
64961;SHT31;51487;52.266;10.542;2023-07-29T09:57:18;22.86;85.33
64961;SHT31;51487;52.266;10.542;2023-07-29T09:59:54;22.94;86.68
64961;SHT31;51487;52.266;10.542;2023-07-29T10:02:21;22.94;83.13
64961;SHT31;51487;52.266;10.542;2023-07-29T10:04:47;22.84;88.28
64961;SHT31;51487;52.266;10.542;2023-07-29T10:07:14;22.79;83.99
64961;SHT31;51487;52.266;10.542;2023-07-29T10:09:42;22.91;84.36
64961;SHT31;51487;52.266;10.542;2023-07-29T10:12:09;22.95;84.94
64961;SHT31;51487;52.266;10.542;2023-07-29T10:14:38;23.15;85.05
64961;SHT31;51487;52.266;10.542;2023-07-29T10:17:05;23.28;86.36
64961;SHT31;51487;52.266;10.542;2023-07-29T10:19:32;23.37;84.55
64961;SHT31;51487;52.266;10.542;2023-07-29T10:22:03;23.31;85.08
64961;SHT31;51487;52.266;10.542;2023-07-29T10:24:33;23.33;86.52
64961;SHT31;51487;52.266;10.542;2023-07-29T10:27:01;23.36;86.25
64961;SHT31;51487;52.266;10.542;2023-07-29T10:29:39;23.39;85.50
64961;SHT31;51487;52.266;10.542;2023-07-29T10:32:11;23.53;85.35
64961;SHT31;51487;52.266;10.542;2023-07-29T10:34:41;23.50;85.41
64961;SHT31;51487;52.266;10.542;2023-07-29T10:37:07;23.57;82.16
64961;SHT31;51487;52.266;10.542;2023-07-29T10:39:45;23.44;84.07
64961;SHT31;51487;52.266;10.542;2023-07-29T10:42:18;23.40;85.80
64961;SHT31;51487;52.266;10.542;2023-07-29T10:47:26;23.46;84.46
64961;SHT31;51487;52.266;10.542;2023-07-29T10:49:58;23.53;84.94
64961;SHT31;51487;52.266;10.542;2023-07-29T10:54:59;23.75;83.86
64961;SHT31;51487;52.266;10.542;2023-07-29T10:57:39;23.71;81.75
64961;SHT31;51487;52.266;10.542;2023-07-29T11:00:07;23.74;82.91
64961;SHT31;51487;52.266;10.542;2023-07-29T11:02:38;23.73;83.58
64961;SHT31;51487;52.266;10.542;2023-07-29T11:05:16;23.55;82.39
64961;SHT31;51487;52.266;10.542;2023-07-29T11:07:47;23.58;83.39
64961;SHT31;51487;52.266;10.542;2023-07-29T11:10:14;23.53;83.20
64961;SHT31;51487;52.266;10.542;2023-07-29T11:12:52;23.39;84.59
64961;SHT31;51487;52.266;10.542;2023-07-29T11:17:58;23.37;84.47
64961;SHT31;51487;52.266;10.542;2023-07-29T11:20:29;23.42;85.33
64961;SHT31;51487;52.266;10.542;2023-07-29T11:22:57;23.27;84.09
64961;SHT31;51487;52.266;10.542;2023-07-29T11:25:24;23.16;86.24
64961;SHT31;51487;52.266;10.542;2023-07-29T11:27:56;23.09;84.49
64961;SHT31;51487;52.266;10.542;2023-07-29T11:30:23;23.07;84.03
64961;SHT31;51487;52.266;10.542;2023-07-29T11:32:49;22.98;82.78
64961;SHT31;51487;52.266;10.542;2023-07-29T11:35:17;22.92;84.21
64961;SHT31;51487;52.266;10.542;2023-07-29T11:37:47;22.79;84.28
64961;SHT31;51487;52.266;10.542;2023-07-29T11:40:17;22.82;83.85
64961;SHT31;51487;52.266;10.542;2023-07-29T11:42:45;22.85;85.03
64961;SHT31;51487;52.266;10.542;2023-07-29T11:45:12;22.69;86.31
64961;SHT31;51487;52.266;10.542;2023-07-29T11:47:38;22.49;85.01
64961;SHT31;51487;52.266;10.542;2023-07-29T11:50:09;22.51;85.80
64961;SHT31;51487;52.266;10.542;2023-07-29T11:52:40;22.47;87.99
64961;SHT31;51487;52.266;10.542;2023-07-29T11:55:07;22.45;86.46
64961;SHT31;51487;52.266;10.542;2023-07-29T11:57:37;22.45;87.15
64961;SHT31;51487;52.266;10.542;2023-07-29T12:00:06;22.40;85.86
64961;SHT31;51487;52.266;10.542;2023-07-29T12:02:36;22.45;88.30
64961;SHT31;51487;52.266;10.542;2023-07-29T12:05:04;22.48;87.08
64961;SHT31;51487;52.266;10.542;2023-07-29T12:07:31;22.62;87.57
64961;SHT31;51487;52.266;10.542;2023-07-29T12:09:57;22.71;87.88
64961;SHT31;51487;52.266;10.542;2023-07-29T12:12:23;22.91;85.33
64961;SHT31;51487;52.266;10.542;2023-07-29T12:14:49;22.92;86.83
64961;SHT31;51487;52.266;10.542;2023-07-29T12:17:15;22.89;86.20
64961;SHT31;51487;52.266;10.542;2023-07-29T12:19:42;23.02;85.35
64961;SHT31;51487;52.266;10.542;2023-07-29T12:22:09;23.09;85.18
64961;SHT31;51487;52.266;10.542;2023-07-29T12:24:43;23.26;85.33
64961;SHT31;51487;52.266;10.542;2023-07-29T12:27:14;23.46;81.82
64961;SHT31;51487;52.266;10.542;2023-07-29T12:29:43;23.77;81.86
64961;SHT31;51487;52.266;10.542;2023-07-29T12:32:09;23.85;81.27
64961;SHT31;51487;52.266;10.542;2023-07-29T12:34:38;24.00;80.50
64961;SHT31;51487;52.266;10.542;2023-07-29T12:37:06;23.97;78.77
64961;SHT31;51487;52.266;10.542;2023-07-29T12:39:34;23.98;78.35
64961;SHT31;51487;52.266;10.542;2023-07-29T12:42:01;23.92;77.54
64961;SHT31;51487;52.266;10.542;2023-07-29T12:44:38;23.94;76.92
64961;SHT31;51487;52.266;10.542;2023-07-29T12:47:08;23.88;74.06
64961;SHT31;51487;52.266;10.542;2023-07-29T12:49:34;23.95;72.10
64961;SHT31;51487;52.266;10.542;2023-07-29T12:52:00;24.12;72.41
64961;SHT31;51487;52.266;10.542;2023-07-29T12:54:27;24.16;70.34
64961;SHT31;51487;52.266;10.542;2023-07-29T12:56:53;24.30;67.43
64961;SHT31;51487;52.266;10.542;2023-07-29T12:59:18;24.46;67.26
64961;SHT31;51487;52.266;10.542;2023-07-29T13:01:44;24.48;67.51
64961;SHT31;51487;52.266;10.542;2023-07-29T13:04:10;24.40;68.25
64961;SHT31;51487;52.266;10.542;2023-07-29T13:06:37;24.43;66.75
64961;SHT31;51487;52.266;10.542;2023-07-29T13:09:02;24.46;67.51
64961;SHT31;51487;52.266;10.542;2023-07-29T13:11:28;24.50;66.74
64961;SHT31;51487;52.266;10.542;2023-07-29T13:13:54;24.52;67.11
64961;SHT31;51487;52.266;10.542;2023-07-29T13:16:20;24.53;66.56
64961;SHT31;51487;52.266;10.542;2023-07-29T13:18:45;24.64;65.05
64961;SHT31;51487;52.266;10.542;2023-07-29T13:21:11;24.66;65.51
64961;SHT31;51487;52.266;10.542;2023-07-29T13:23:36;24.48;65.06
64961;SHT31;51487;52.266;10.542;2023-07-29T13:26:02;24.53;63.10
64961;SHT31;51487;52.266;10.542;2023-07-29T13:28:28;24.57;64.85
64961;SHT31;51487;52.266;10.542;2023-07-29T13:30:53;24.64;63.81
64961;SHT31;51487;52.266;10.542;2023-07-29T13:33:19;24.87;63.74
64961;SHT31;51487;52.266;10.542;2023-07-29T13:35:44;25.04;63.04
64961;SHT31;51487;52.266;10.542;2023-07-29T13:38:10;25.08;61.07
64961;SHT31;51487;52.266;10.542;2023-07-29T13:40:36;25.07;62.17
64961;SHT31;51487;52.266;10.542;2023-07-29T13:43:02;24.97;61.20
64961;SHT31;51487;52.266;10.542;2023-07-29T13:45:28;24.80;61.81
64961;SHT31;51487;52.266;10.542;2023-07-29T13:47:54;24.83;61.05
64961;SHT31;51487;52.266;10.542;2023-07-29T13:50:19;24.97;60.70
64961;SHT31;51487;52.266;10.542;2023-07-29T13:52:45;25.04;60.92
64961;SHT31;51487;52.266;10.542;2023-07-29T13:55:11;24.84;59.04
64961;SHT31;51487;52.266;10.542;2023-07-29T13:57:38;24.70;56.77
64961;SHT31;51487;52.266;10.542;2023-07-29T14:00:06;24.74;57.29
64961;SHT31;51487;52.266;10.542;2023-07-29T14:02:33;24.76;55.72
64961;SHT31;51487;52.266;10.542;2023-07-29T14:04:59;24.73;55.40
64961;SHT31;51487;52.266;10.542;2023-07-29T14:07:25;24.77;56.72
64961;SHT31;51487;52.266;10.542;2023-07-29T14:09:50;25.06;57.39
64961;SHT31;51487;52.266;10.542;2023-07-29T14:12:16;25.14;57.74
64961;SHT31;51487;52.266;10.542;2023-07-29T14:14:42;25.14;56.13
64961;SHT31;51487;52.266;10.542;2023-07-29T14:17:12;25.25;55.92
64961;SHT31;51487;52.266;10.542;2023-07-29T14:19:37;25.15;56.41
64961;SHT31;51487;52.266;10.542;2023-07-29T14:22:04;24.87;55.98
64961;SHT31;51487;52.266;10.542;2023-07-29T14:24:30;25.10;56.16
64961;SHT31;51487;52.266;10.542;2023-07-29T14:26:55;25.24;55.96
64961;SHT31;51487;52.266;10.542;2023-07-29T14:29:21;25.39;57.21
64961;SHT31;51487;52.266;10.542;2023-07-29T14:31:50;25.48;56.29
64961;SHT31;51487;52.266;10.542;2023-07-29T14:34:16;25.46;56.47
64961;SHT31;51487;52.266;10.542;2023-07-29T14:36:41;25.31;56.83
64961;SHT31;51487;52.266;10.542;2023-07-29T14:39:07;25.21;57.39
64961;SHT31;51487;52.266;10.542;2023-07-29T14:41:33;25.30;58.05
64961;SHT31;51487;52.266;10.542;2023-07-29T14:43:58;25.21;56.45
64961;SHT31;51487;52.266;10.542;2023-07-29T14:46:24;25.25;57.48
64961;SHT31;51487;52.266;10.542;2023-07-29T14:48:50;25.30;56.75
64961;SHT31;51487;52.266;10.542;2023-07-29T14:51:17;25.12;58.14
64961;SHT31;51487;52.266;10.542;2023-07-29T14:53:44;25.28;57.53
64961;SHT31;51487;52.266;10.542;2023-07-29T14:56:13;25.25;58.02
64961;SHT31;51487;52.266;10.542;2023-07-29T14:58:44;25.28;57.86
64961;SHT31;51487;52.266;10.542;2023-07-29T15:01:10;25.30;57.12
64961;SHT31;51487;52.266;10.542;2023-07-29T15:03:36;25.38;58.08
64961;SHT31;51487;52.266;10.542;2023-07-29T15:06:04;25.55;57.12
64961;SHT31;51487;52.266;10.542;2023-07-29T15:08:30;25.63;58.11
64961;SHT31;51487;52.266;10.542;2023-07-29T15:10:56;25.75;57.07
64961;SHT31;51487;52.266;10.542;2023-07-29T15:13:25;25.88;56.00
64961;SHT31;51487;52.266;10.542;2023-07-29T15:16:01;26.03;56.39
64961;SHT31;51487;52.266;10.542;2023-07-29T15:18:27;25.93;55.47
64961;SHT31;51487;52.266;10.542;2023-07-29T15:21:01;26.07;56.54
64961;SHT31;51487;52.266;10.542;2023-07-29T15:23:28;26.00;56.27
64961;SHT31;51487;52.266;10.542;2023-07-29T15:25:58;25.92;57.32